Time;durP1;ratioP1;P1;durP2;ratioP2;P2;SDS_P1;SDS_P2;PMS_P1;PMS_P2;Temp;Humidity;BMP_temperature;BMP_pressure;BME280_temperature;BME280_humidity;BME280_pressure;Samples;Min_cycle;Max_cycle;Signal;HPM_P1;HPM_P2
2021/11/11 00:00:11;;;;;;;22.08;8.73;;;9.90;93.30;;;;;;5011581;28;20129;-47
2021/11/11 00:02:36;;;;;;;14.63;6.32;;;10.00;93.30;;;;;;5011725;28;20026;-47
2021/11/11 00:05:03;;;;;;;19.92;8.02;;;9.90;93.30;;;;;;5010333;28;20037;-47
2021/11/11 00:07:29;;;;;;;19.98;7.85;;;9.90;93.30;;;;;;5011608;28;20037;-47
2021/11/11 00:09:57;;;;;;;19.48;8.55;;;9.90;93.30;;;;;;5011651;28;20092;-47
2021/11/11 00:12:25;;;;;;;24.77;8.77;;;9.90;93.30;;;;;;5011734;28;20026;-47
2021/11/11 00:14:51;;;;;;;19.60;8.65;;;9.90;93.20;;;;;;5010761;28;20357;-47
2021/11/11 00:17:17;;;;;;;23.60;7.60;;;9.90;93.30;;;;;;5011220;28;20025;-47
2021/11/11 00:19:43;;;;;;;19.30;7.72;;;9.90;93.30;;;;;;5011574;28;20041;-47
2021/11/11 00:22:08;;;;;;;19.45;8.00;;;9.90;93.20;;;;;;5011344;28;20033;-47
2021/11/11 00:24:34;;;;;;;18.60;8.23;;;9.90;93.20;;;;;;5011516;28;20026;-47
2021/11/11 00:27:00;;;;;;;17.83;6.88;;;9.90;93.20;;;;;;5010991;28;20141;-47
2021/11/11 00:29:25;;;;;;;15.30;7.43;;;9.90;93.20;;;;;;5010754;28;20034;-47
2021/11/11 00:31:51;;;;;;;18.13;7.32;;;9.90;93.20;;;;;;5011193;28;20120;-47
2021/11/11 00:34:16;;;;;;;14.70;7.88;;;9.90;93.20;;;;;;5010899;28;20025;-47
2021/11/11 00:36:42;;;;;;;17.33;8.55;;;9.90;93.20;;;;;;5010511;28;20484;-47
2021/11/11 00:39:08;;;;;;;19.58;8.32;;;9.90;93.20;;;;;;5011402;28;20036;-47
2021/11/11 00:41:34;;;;;;;17.58;7.80;;;9.90;93.20;;;;;;5011682;28;20087;-47
2021/11/11 00:44:00;;;;;;;16.00;6.80;;;9.90;93.10;;;;;;5010894;28;20441;-47
2021/11/11 00:46:27;;;;;;;18.33;7.75;;;9.90;93.20;;;;;;5010146;28;20120;-47
2021/11/11 00:48:52;;;;;;;15.52;7.18;;;9.90;93.20;;;;;;5009873;28;20445;-47
2021/11/11 00:51:18;;;;;;;16.00;6.93;;;9.90;93.20;;;;;;5010748;28;20046;-47
2021/11/11 00:53:44;;;;;;;20.08;8.35;;;9.90;93.20;;;;;;5011447;28;20026;-48
2021/11/11 00:56:10;;;;;;;14.70;6.78;;;9.90;93.20;;;;;;5010041;28;20085;-47
2021/11/11 00:58:36;;;;;;;18.92;7.88;;;9.90;93.20;;;;;;5011411;28;20033;-47
2021/11/11 01:01:02;;;;;;;14.52;6.82;;;9.80;93.20;;;;;;5010573;28;20030;-48
2021/11/11 01:03:40;;;;;;;22.88;7.68;;;9.90;93.20;;;;;;5011131;28;20049;-47
2021/11/11 01:06:07;;;;;;;14.40;6.82;;;9.90;93.20;;;;;;5009926;28;20120;-47
2021/11/11 01:08:33;;;;;;;18.13;7.85;;;9.90;93.20;;;;;;5011007;28;20100;-47
2021/11/11 01:11:01;;;;;;;18.90;8.20;;;9.80;93.10;;;;;;5010973;28;20053;-47
2021/11/11 01:13:27;;;;;;;16.40;7.72;;;9.80;93.20;;;;;;5010709;28;20033;-47
2021/11/11 01:15:52;;;;;;;15.00;7.70;;;9.80;93.20;;;;;;5010408;28;20038;-47
2021/11/11 01:18:18;;;;;;;15.65;7.43;;;9.80;93.10;;;;;;5014469;28;20476;-47
2021/11/11 01:20:44;;;;;;;18.92;7.95;;;9.80;93.20;;;;;;5015167;28;20061;-47
2021/11/11 01:23:10;;;;;;;20.30;8.10;;;9.80;93.10;;;;;;5014769;28;20392;-47
2021/11/11 01:25:38;;;;;;;14.95;7.10;;;9.80;93.10;;;;;;5014013;28;20030;-47
2021/11/11 01:28:04;;;;;;;13.43;6.05;;;9.90;93.20;;;;;;5014604;28;20068;-47
2021/11/11 01:30:30;;;;;;;19.35;8.15;;;9.90;93.20;;;;;;5014072;28;20025;-47
2021/11/11 01:32:56;;;;;;;24.05;8.25;;;9.90;93.20;;;;;;5014573;28;20068;-47
2021/11/11 01:35:21;;;;;;;16.60;6.93;;;9.80;93.10;;;;;;5013798;28;20072;-47
2021/11/11 01:37:47;;;;;;;16.70;7.28;;;9.80;93.20;;;;;;5014624;28;20030;-47
2021/11/11 01:40:15;;;;;;;23.60;7.63;;;9.80;93.10;;;;;;5013880;28;20109;-47
2021/11/11 01:42:46;;;;;;;14.27;6.53;;;9.80;93.20;;;;;;5014481;28;20116;-47
2021/11/11 01:45:12;;;;;;;17.30;6.95;;;9.80;93.20;;;;;;5013186;28;20065;-47
2021/11/11 01:47:39;;;;;;;19.92;7.97;;;9.80;93.10;;;;;;5014392;28;20037;-47
2021/11/11 01:50:05;;;;;;;15.52;7.28;;;9.80;93.10;;;;;;5013317;28;20034;-47
2021/11/11 01:52:31;;;;;;;14.27;6.50;;;9.80;93.10;;;;;;5014748;28;20448;-47
2021/11/11 01:54:56;;;;;;;16.08;7.07;;;9.80;93.10;;;;;;5013222;28;20431;-47
2021/11/11 01:57:23;;;;;;;14.70;6.53;;;9.80;93.10;;;;;;5013808;28;20030;-47
2021/11/11 01:59:48;;;;;;;19.70;7.13;;;9.80;93.00;;;;;;5013385;28;20042;-47
2021/11/11 02:02:26;;;;;;;16.13;6.40;;;9.80;93.10;;;;;;5014206;28;20061;-48
2021/11/11 02:04:52;;;;;;;9.40;5.60;;;9.80;93.10;;;;;;5013748;28;20036;-47
2021/11/11 02:07:17;;;;;;;14.95;6.25;;;9.80;93.10;;;;;;5012914;28;20025;-48
2021/11/11 02:09:43;;;;;;;15.57;7.00;;;9.80;93.00;;;;;;5014210;28;20033;-47
2021/11/11 02:12:09;;;;;;;15.40;6.60;;;9.80;93.00;;;;;;5014053;28;20053;-47
2021/11/11 02:14:35;;;;;;;16.90;6.55;;;9.80;93.00;;;;;;5013513;28;20096;-47
2021/11/11 02:17:01;;;;;;;16.13;6.22;;;9.80;93.00;;;;;;5012462;28;20407;-47
2021/11/11 02:19:27;;;;;;;15.98;7.30;;;9.80;93.00;;;;;;5013572;28;20101;-47
2021/11/11 02:21:53;;;;;;;15.52;6.90;;;9.70;92.90;;;;;;5013442;28;20057;-47
2021/11/11 02:24:19;;;;;;;14.65;6.55;;;9.80;92.90;;;;;;5013314;28;20471;-47
2021/11/11 02:26:45;;;;;;;17.02;6.50;;;9.70;92.90;;;;;;5012198;28;20030;-47
2021/11/11 02:29:11;;;;;;;21.73;6.80;;;9.70;93.00;;;;;;5013315;28;20022;-47
2021/11/11 02:31:37;;;;;;;14.80;5.45;;;9.70;92.90;;;;;;5012849;28;20112;-47
2021/11/11 02:34:03;;;;;;;14.93;7.15;;;9.70;92.90;;;;;;5013644;28;20444;-47
2021/11/11 02:36:28;;;;;;;17.25;6.50;;;9.70;92.90;;;;;;5012232;28;20508;-48
2021/11/11 02:38:54;;;;;;;13.98;6.40;;;9.70;92.90;;;;;;5013620;28;20497;-47
2021/11/11 02:41:21;;;;;;;19.15;7.38;;;9.80;92.90;;;;;;5012986;28;20041;-47
2021/11/11 02:43:47;;;;;;;12.38;6.43;;;9.80;92.90;;;;;;5013606;28;20025;-47
2021/11/11 02:46:13;;;;;;;18.80;7.00;;;9.70;92.90;;;;;;5011693;28;20026;-47
2021/11/11 02:48:39;;;;;;;11.27;5.13;;;9.70;92.90;;;;;;5012120;28;20060;-48
2021/11/11 02:51:04;;;;;;;14.27;5.82;;;9.70;92.90;;;;;;5012953;28;20037;-48
2021/11/11 02:53:30;;;;;;;12.50;5.05;;;9.80;93.00;;;;;;5013381;28;20461;-48
2021/11/11 02:55:56;;;;;;;14.52;6.20;;;9.70;92.90;;;;;;5012299;28;20061;-47
2021/11/11 02:58:23;;;;;;;16.63;6.13;;;9.70;92.90;;;;;;5012944;28;20038;-48
2021/11/11 03:00:59;;;;;;;13.77;6.10;;;9.70;93.00;;;;;;5012332;28;20036;-48
2021/11/11 03:03:27;;;;;;;14.90;6.18;;;9.70;92.90;;;;;;5012780;28;20075;-48
2021/11/11 03:05:53;;;;;;;18.48;7.03;;;9.80;93.00;;;;;;5011771;28;20242;-48
2021/11/11 03:08:19;;;;;;;12.82;6.45;;;9.70;92.90;;;;;;5012923;28;20040;-47
2021/11/11 03:10:45;;;;;;;14.80;6.50;;;9.70;92.90;;;;;;5012484;28;20026;-47
2021/11/11 03:13:12;;;;;;;14.10;6.10;;;9.80;92.90;;;;;;5012745;28;20026;-47
2021/11/11 03:15:38;;;;;;;18.00;6.78;;;9.70;92.90;;;;;;5010835;28;20642;-48
2021/11/11 03:18:03;;;;;;;11.57;5.78;;;9.70;92.90;;;;;;5012977;28;20021;-47
2021/11/11 03:20:30;;;;;;;13.57;6.25;;;9.70;92.90;;;;;;5012721;28;20018;-47
2021/11/11 03:22:56;;;;;;;17.15;6.15;;;9.70;92.90;;;;;;5012899;28;20353;-47
2021/11/11 03:25:25;;;;;;;9.27;4.85;;;9.70;92.90;;;;;;5011485;28;20149;-47
2021/11/11 03:27:51;;;;;;;13.40;6.07;;;9.80;92.90;;;;;;5012530;28;20182;-47
2021/11/11 03:30:19;;;;;;;13.15;6.00;;;9.70;92.90;;;;;;5011918;28;20109;-47
2021/11/11 03:32:46;;;;;;;10.88;5.40;;;9.70;92.90;;;;;;5011649;28;20433;-47
2021/11/11 03:35:13;;;;;;;18.63;6.68;;;9.70;92.90;;;;;;5011332;28;20049;-47
2021/11/11 03:37:40;;;;;;;15.43;6.20;;;9.70;92.90;;;;;;5012649;28;20042;-47
2021/11/11 03:40:15;;;;;;;13.80;7.07;;;9.70;92.90;;;;;;5011368;28;20026;-47
2021/11/11 03:42:45;;;;;;;12.45;6.97;;;9.70;92.90;;;;;;5012110;28;20030;-47
2021/11/11 03:45:10;;;;;;;15.07;6.35;;;9.70;92.80;;;;;;5011343;28;20049;-47
2021/11/11 03:47:37;;;;;;;13.43;5.82;;;9.70;92.80;;;;;;5011880;28;20026;-47
2021/11/11 03:50:03;;;;;;;11.98;5.10;;;9.70;92.80;;;;;;5004336;28;20127;-47
2021/11/11 03:52:28;;;;;;;11.63;5.53;;;9.70;92.80;;;;;;5011718;28;20030;-47
2021/11/11 03:54:54;;;;;;;13.38;6.43;;;9.70;92.80;;;;;;5011638;28;20527;-47
2021/11/11 03:57:20;;;;;;;13.18;5.88;;;9.70;92.80;;;;;;5011242;28;20175;-47
2021/11/11 03:59:46;;;;;;;10.40;5.68;;;9.70;92.80;;;;;;5012009;28;20030;-47
2021/11/11 04:02:14;;;;;;;12.02;5.78;;;9.70;93.10;;;;;;5010744;28;20084;-48
2021/11/11 04:04:41;;;;;;;14.13;6.20;;;9.70;92.70;;;;;;5011879;28;20037;-48
2021/11/11 04:07:06;;;;;;;9.90;4.43;;;9.70;92.70;;;;;;5010079;28;20030;-47
2021/11/11 04:09:33;;;;;;;8.77;4.63;;;9.70;92.70;;;;;;5011523;28;20453;-47
2021/11/11 04:12:01;;;;;;;9.65;5.70;;;9.70;92.70;;;;;;5011738;28;20034;-47
2021/11/11 04:14:26;;;;;;;14.13;6.45;;;9.70;92.60;;;;;;5011355;28;20106;-47
2021/11/11 04:16:52;;;;;;;14.98;6.47;;;9.70;92.70;;;;;;5009873;28;20556;-47
2021/11/11 04:19:18;;;;;;;13.00;6.60;;;9.60;92.60;;;;;;5011683;28;20022;-48
2021/11/11 04:21:44;;;;;;;11.90;5.95;;;9.70;93.00;;;;;;5011291;28;20125;-47
2021/11/11 04:24:10;;;;;;;14.98;5.97;;;9.60;92.60;;;;;;5011220;28;20050;-47
2021/11/11 04:26:45;;;;;;;15.35;5.72;;;9.70;92.60;;;;;;5011067;28;20022;-47
2021/11/11 04:29:32;;;;;;;10.73;5.68;;;9.60;92.60;;;;;;5011146;28;20029;-47
2021/11/11 04:32:02;;;;;;;11.82;5.85;;;9.70;92.60;;;;;;5010773;28;20044;-47
2021/11/11 04:34:31;;;;;;;14.25;5.53;;;9.60;92.60;;;;;;5011460;28;20038;-48
2021/11/11 04:37:12;;;;;;;11.18;5.40;;;9.70;92.50;;;;;;5010676;28;20066;-48
2021/11/11 04:40:01;;;;;;;10.98;5.65;;;9.60;92.50;;;;;;5010896;28;20030;-47
2021/11/11 04:53:08;;;;;;;13.07;4.70;;;9.60;92.50;;;;;;5010905;28;20101;-47
2021/11/11 05:03:44;;;;;;;9.60;4.93;;;9.60;92.50;;;;;;5010889;28;20033;-47
2021/11/11 05:06:12;;;;;;;19.77;6.07;;;9.60;92.50;;;;;;5010529;28;20034;-47
2021/11/11 05:08:37;;;;;;;14.77;6.35;;;9.60;92.40;;;;;;5011047;28;20033;-47
2021/11/11 05:11:03;;;;;;;14.38;6.18;;;9.60;92.40;;;;;;5008252;28;20034;-48
2021/11/11 05:13:29;;;;;;;11.10;6.00;;;9.60;92.40;;;;;;5010528;28;20056;-48
2021/11/11 05:15:55;;;;;;;16.15;6.13;;;9.60;92.40;;;;;;5009932;28;20096;-47
2021/11/11 05:18:21;;;;;;;13.10;6.00;;;9.60;92.40;;;;;;5010069;28;20056;-48
2021/11/11 05:20:47;;;;;;;12.07;6.13;;;9.60;92.40;;;;;;5010515;28;20069;-48
2021/11/11 05:23:13;;;;;;;14.88;6.85;;;9.60;92.40;;;;;;5009520;28;20065;-47
2021/11/11 05:25:38;;;;;;;11.90;5.50;;;9.60;92.40;;;;;;5010211;28;20452;-48
2021/11/11 05:28:04;;;;;;;9.88;6.20;;;9.60;92.40;;;;;;5010511;28;20485;-47
2021/11/11 05:30:31;;;;;;;17.25;6.30;;;9.60;92.40;;;;;;5010998;28;20033;-47
2021/11/11 05:32:57;;;;;;;17.70;7.07;;;9.60;92.40;;;;;;5009686;28;20034;-47
2021/11/11 05:35:23;;;;;;;10.93;5.63;;;9.60;92.30;;;;;;5010010;28;20461;-48
2021/11/11 05:37:49;;;;;;;11.77;6.05;;;9.60;92.30;;;;;;5010182;28;20033;-47
2021/11/11 05:40:16;;;;;;;13.15;5.47;;;9.60;92.30;;;;;;5011205;28;20026;-48
2021/11/11 05:42:43;;;;;;;13.43;5.57;;;9.60;92.70;;;;;;5009886;28;20077;-47
2021/11/11 05:45:09;;;;;;;14.10;5.88;;;9.60;92.40;;;;;;5010148;28;20038;-48
2021/11/11 05:47:35;;;;;;;14.20;6.28;;;9.60;92.30;;;;;;5010104;28;20026;-47
2021/11/11 05:50:01;;;;;;;15.25;5.72;;;9.60;92.40;;;;;;5010733;28;20026;-47
2021/11/11 05:52:27;;;;;;;14.80;4.68;;;9.60;92.40;;;;;;5010168;28;20026;-48
2021/11/11 05:54:52;;;;;;;14.50;6.60;;;9.50;92.70;;;;;;5010720;28;20029;-48
2021/11/11 05:57:18;;;;;;;13.13;6.28;;;9.50;92.30;;;;;;5009736;28;20411;-47
2021/11/11 05:59:44;;;;;;;12.45;5.78;;;9.50;92.30;;;;;;5010468;28;20333;-48
2021/11/11 06:02:12;;;;;;;20.27;7.80;;;9.50;92.30;;;;;;5010356;28;20034;-47
2021/11/11 06:04:42;;;;;;;17.60;7.32;;;9.50;92.30;;;;;;5013881;28;20128;-48
2021/11/11 06:07:08;;;;;;;;;;;9.50;92.30;;;;;;5013366;28;20069;-48
2021/11/11 06:09:34;;;;;;;11.55;6.45;;;9.60;92.30;;;;;;5014357;28;20051;-47
2021/11/11 06:12:00;;;;;;;11.68;6.05;;;9.50;92.30;;;;;;5013908;28;20437;-47
2021/11/11 06:14:26;;;;;;;18.30;6.15;;;9.50;92.30;;;;;;5012033;28;20061;-48
2021/11/11 06:16:51;;;;;;;14.85;6.43;;;9.50;92.30;;;;;;5012484;28;20041;-47
2021/11/11 06:19:17;;;;;;;12.70;6.00;;;9.50;92.30;;;;;;5014196;28;20050;-48
2021/11/11 06:21:44;;;;;;;23.08;6.28;;;9.50;92.20;;;;;;5013751;28;20034;-47
2021/11/11 06:24:11;;;;;;;20.10;7.30;;;9.50;92.20;;;;;;5013381;28;20026;-47
2021/11/11 06:26:37;;;;;;;13.93;6.47;;;9.50;92.20;;;;;;5012842;28;20394;-48
2021/11/11 06:29:04;;;;;;;15.10;6.00;;;9.50;92.20;;;;;;5013311;28;20041;-48
2021/11/11 06:31:30;;;;;;;15.07;6.95;;;9.50;92.20;;;;;;5013284;28;20030;-47
2021/11/11 06:33:57;;;;;;;15.00;6.45;;;9.50;92.20;;;;;;5013025;28;20060;-48
2021/11/11 06:36:23;;;;;;;14.68;6.57;;;9.50;92.20;;;;;;5012709;28;20121;-47
2021/11/11 06:38:48;;;;;;;14.05;5.55;;;9.50;92.20;;;;;;5015748;28;20496;-48
2021/11/11 06:41:14;;;;;;;12.57;6.15;;;9.50;92.20;;;;;;5021550;28;20022;-48
2021/11/11 06:43:40;;;;;;;13.00;6.53;;;9.50;92.10;;;;;;5023331;28;20025;-47
2021/11/11 06:46:06;;;;;;;12.85;6.53;;;9.50;92.20;;;;;;5021507;28;20356;-47
2021/11/11 06:48:32;;;;;;;12.25;6.50;;;9.50;92.20;;;;;;5017317;28;20030;-47
2021/11/11 06:50:58;;;;;;;16.27;5.68;;;9.50;92.20;;;;;;5013584;28;20022;-48
2021/11/11 06:53:25;;;;;;;13.50;6.95;;;9.50;92.20;;;;;;5013295;28;20026;-48
2021/11/11 06:55:51;;;;;;;17.58;6.40;;;9.50;92.20;;;;;;5012207;28;20060;-46
2021/11/11 06:58:24;;;;;;;11.38;6.60;;;9.50;92.10;;;;;;5012904;28;20049;-46
2021/11/11 07:00:57;;;;;;;14.65;6.57;;;9.50;91.80;;;;;;5013011;28;20477;-47
2021/11/11 07:03:22;;;;;;;18.98;7.55;;;9.50;91.70;;;;;;5012119;28;20140;-47
2021/11/11 07:05:48;;;;;;;16.25;6.63;;;9.50;91.80;;;;;;5011791;28;20112;-47
2021/11/11 07:08:14;;;;;;;16.38;6.53;;;9.50;91.80;;;;;;5012575;28;20026;-48
2021/11/11 07:10:46;;;;;;;14.32;6.70;;;9.50;91.80;;;;;;5012929;28;20029;-47
2021/11/11 07:13:12;;;;;;;11.13;5.60;;;9.50;91.90;;;;;;5012289;28;20356;-48
2021/11/11 07:15:38;;;;;;;11.48;6.70;;;9.50;91.90;;;;;;5012342;28;20037;-47
2021/11/11 07:18:04;;;;;;;18.73;6.90;;;9.50;91.90;;;;;;5011817;28;20512;-47
2021/11/11 07:20:31;;;;;;;16.30;6.97;;;9.50;91.90;;;;;;5012402;28;20069;-47
2021/11/11 07:23:01;;;;;;;18.00;6.72;;;9.50;92.00;;;;;;5012837;28;20049;-47
2021/11/11 07:25:28;;;;;;;13.95;6.35;;;9.50;92.00;;;;;;5012401;28;20041;-48
2021/11/11 07:27:55;;;;;;;16.55;7.32;;;9.50;92.00;;;;;;5011895;28;20125;-47
2021/11/11 07:30:22;;;;;;;14.95;6.88;;;9.50;92.00;;;;;;5012562;28;20105;-47
2021/11/11 07:32:48;;;;;;;16.60;6.05;;;9.50;92.10;;;;;;5012115;28;20030;-47
2021/11/11 07:35:14;;;;;;;12.95;6.63;;;9.50;92.10;;;;;;5011645;28;20115;-47
2021/11/11 07:37:46;;;;;;;14.23;5.60;;;9.50;92.10;;;;;;5012392;28;20026;-47
2021/11/11 07:40:16;;;;;;;26.90;5.90;;;9.60;92.10;;;;;;5011460;28;20052;-47
2021/11/11 07:42:43;;;;;;;11.15;5.20;;;9.50;92.10;;;;;;5012225;28;20117;-47
2021/11/11 07:45:10;;;;;;;11.10;5.65;;;9.60;92.20;;;;;;5011191;28;20041;-46
2021/11/11 07:47:36;;;;;;;12.00;5.95;;;9.50;92.20;;;;;;5012059;28;20030;-46
2021/11/11 07:50:05;;;;;;;16.92;6.18;;;9.50;92.20;;;;;;5012069;28;20026;-46
2021/11/11 07:52:31;;;;;;;8.20;4.95;;;9.50;92.20;;;;;;5011928;28;20068;-47
2021/11/11 07:54:58;;;;;;;11.70;6.25;;;9.60;92.30;;;;;;5011758;28;20057;-46
2021/11/11 07:57:27;;;;;;;20.77;5.32;;;9.60;92.40;;;;;;5011782;28;20018;-46
2021/11/11 07:59:54;;;;;;;10.32;4.75;;;9.50;92.30;;;;;;5011985;28;20040;-47
2021/11/11 08:02:21;;;;;;;14.18;5.57;;;9.50;92.40;;;;;;5011565;28;20018;-46
2021/11/11 08:04:47;;;;;;;10.27;5.32;;;9.60;92.30;;;;;;5010827;28;20033;-47
2021/11/11 08:07:14;;;;;;;10.85;4.65;;;9.60;92.10;;;;;;5011066;28;20032;-47
2021/11/11 08:09:40;;;;;;;6.78;4.10;;;9.60;92.10;;;;;;5011829;28;20033;-47
2021/11/11 08:12:07;;;;;;;8.30;3.88;;;9.60;92.00;;;;;;5011804;28;20045;-46
2021/11/11 08:14:32;;;;;;;10.07;4.60;;;9.70;91.90;;;;;;5011344;28;20033;-46
2021/11/11 08:16:58;;;;;;;9.70;4.45;;;9.70;91.90;;;;;;5010753;28;20411;-46
2021/11/11 08:19:24;;;;;;;9.68;5.35;;;9.70;91.90;;;;;;5010954;28;20037;-47
2021/11/11 08:21:50;;;;;;;14.82;4.35;;;9.70;91.90;;;;;;5011110;28;20072;-46
2021/11/11 08:24:16;;;;;;;7.25;3.92;;;9.70;91.90;;;;;;5011413;28;20026;-46
2021/11/11 08:26:41;;;;;;;7.35;4.18;;;9.70;92.00;;;;;;5009333;28;20032;-46
2021/11/11 08:29:07;;;;;;;12.40;5.22;;;9.80;91.90;;;;;;5011185;28;20033;-46
2021/11/11 08:31:33;;;;;;;18.75;5.43;;;9.80;92.00;;;;;;5011898;28;20032;-47
2021/11/11 08:33:59;;;;;;;11.15;6.18;;;9.80;92.00;;;;;;5010335;28;20457;-47
2021/11/11 08:36:26;;;;;;;16.35;6.13;;;9.80;92.00;;;;;;5010532;28;20034;-46
2021/11/11 08:38:52;;;;;;;21.35;6.78;;;9.80;92.10;;;;;;5011868;28;20030;-47
2021/11/11 08:41:18;;;;;;;14.90;6.40;;;9.80;92.10;;;;;;5011624;28;20076;-46
2021/11/11 08:43:44;;;;;;;17.27;7.38;;;9.80;92.20;;;;;;5011059;28;20064;-46
2021/11/11 08:46:10;;;;;;;14.02;6.30;;;9.90;92.40;;;;;;5010256;28;20069;-46
2021/11/11 08:48:36;;;;;;;12.02;6.43;;;9.90;92.50;;;;;;5010657;28;20033;-46
2021/11/11 08:51:02;;;;;;;15.00;6.30;;;9.90;92.50;;;;;;5011081;28;20417;-46
2021/11/11 08:53:30;;;;;;;14.20;5.07;;;9.90;92.50;;;;;;5010997;28;20030;-46
2021/11/11 08:55:56;;;;;;;17.67;6.30;;;9.90;92.50;;;;;;5010506;28;20038;-46
2021/11/11 08:58:22;;;;;;;16.65;7.13;;;9.90;92.60;;;;;;5011063;28;20033;-46
2021/11/11 09:00:51;;;;;;;12.48;5.88;;;10.00;92.90;;;;;;5011203;28;20025;-46
2021/11/11 09:03:20;;;;;;;23.63;7.82;;;10.00;92.90;;;;;;5010365;28;20025;-46
2021/11/11 09:05:47;;;;;;;12.93;6.13;;;10.00;93.40;;;;;;5009814;28;20041;-46
2021/11/11 09:08:14;;;;;;;15.98;6.28;;;10.00;94.00;;;;;;5011086;28;20026;-46
2021/11/11 09:10:43;;;;;;;7.13;3.65;;;10.00;93.90;;;;;;5010631;28;20469;-46
2021/11/11 09:13:09;;;;;;;7.53;5.32;;;10.00;93.80;;;;;;5010677;28;20460;-47
2021/11/11 09:15:35;;;;;;;17.23;7.65;;;10.00;93.70;;;;;;5010048;28;20030;-47
2021/11/11 09:18:04;;;;;;;15.82;6.80;;;10.10;94.40;;;;;;5010772;28;20022;-46
2021/11/11 09:20:31;;;;;;;18.00;8.43;;;10.10;94.10;;;;;;5010216;28;20037;-46
2021/11/11 09:22:59;;;;;;;10.23;6.20;;;10.10;94.40;;;;;;5011169;28;20018;-46
2021/11/11 09:25:27;;;;;;;8.60;4.82;;;10.10;94.20;;;;;;5010079;28;20131;-46
2021/11/11 09:27:54;;;;;;;12.98;6.22;;;10.10;94.10;;;;;;5010858;28;20449;-47
2021/11/11 09:30:24;;;;;;;12.43;7.72;;;10.10;94.10;;;;;;5010636;28;20034;-46
2021/11/11 09:32:50;;;;;;;17.95;8.85;;;10.10;94.00;;;;;;5010471;28;20020;-47
2021/11/11 09:35:17;;;;;;;13.07;5.35;;;10.10;93.90;;;;;;5009287;28;20347;-46
2021/11/11 09:37:43;;;;;;;15.55;7.00;;;10.10;94.10;;;;;;5012604;28;20212;-47
2021/11/11 09:40:12;;;;;;;14.52;6.13;;;10.20;94.00;;;;;;5014620;28;20040;-46
2021/11/11 09:42:38;;;;;;;11.45;6.30;;;10.20;94.00;;;;;;5014963;28;20105;-46
2021/11/11 09:45:08;;;;;;;12.13;6.75;;;10.20;93.90;;;;;;5013406;28;20408;-46
2021/11/11 09:47:34;;;;;;;15.13;6.60;;;10.20;93.90;;;;;;5014515;28;20022;-46
2021/11/11 09:50:01;;;;;;;10.18;6.53;;;10.20;94.20;;;;;;5013985;28;20034;-46
2021/11/11 09:52:27;;;;;;;10.70;5.80;;;10.20;93.80;;;;;;5014427;28;20061;-46
2021/11/11 10:00:24;;;;;;;15.57;7.50;;;10.20;93.70;;;;;;5014474;28;20029;-46
2021/11/11 10:02:54;;;;;;;24.58;8.60;;;10.20;93.70;;;;;;5013966;28;20080;-46
2021/11/11 10:05:20;;;;;;;6.80;4.47;;;10.20;93.70;;;;;;5012631;28;20045;-47
2021/11/11 10:07:46;;;;;;;13.15;5.78;;;10.20;93.50;;;;;;5014500;28;20461;-47
2021/11/11 10:10:34;;;;;;;18.45;9.77;;;10.20;93.60;;;;;;5013323;28;20026;-47
2021/11/11 10:13:15;;;;;;;18.60;7.80;;;10.20;93.60;;;;;;5014277;28;20022;-46
2021/11/11 10:16:05;;;;;;;6.65;4.18;;;10.30;93.50;;;;;;5013000;28;20404;-47
2021/11/11 10:18:46;;;;;;;22.90;8.80;;;10.30;93.10;;;;;;5013637;28;20038;-46
2021/11/11 10:21:22;;;;;;;22.65;8.48;;;10.40;93.00;;;;;;5013032;28;20113;-47
2021/11/11 10:23:49;;;;;;;13.63;7.90;;;10.40;93.30;;;;;;5013982;28;20021;-47
2021/11/11 10:26:30;;;;;;;13.85;7.90;;;10.40;93.20;;;;;;5012978;28;20030;-47
2021/11/11 10:28:55;;;;;;;14.68;7.65;;;10.40;93.40;;;;;;5013579;28;20453;-46
2021/11/11 10:31:21;;;;;;;15.93;9.05;;;10.40;93.50;;;;;;5013388;28;20049;-46
2021/11/11 10:34:10;;;;;;;12.30;5.35;;;10.40;93.60;;;;;;5013202;28;20783;-46
2021/11/11 10:36:49;;;;;;;30.83;7.32;;;10.50;93.60;;;;;;4993295;28;20046;-46
2021/11/11 10:39:18;;;;;;;10.13;5.32;;;10.50;93.60;;;;;;5003978;28;20030;-46
2021/11/11 10:41:44;;;;;;;17.67;7.63;;;10.50;93.60;;;;;;5013532;28;20026;-46
2021/11/11 10:44:32;;;;;;;9.85;5.82;;;10.50;93.60;;;;;;5013507;28;20022;-46
2021/11/11 10:47:04;;;;;;;18.58;5.43;;;10.50;93.60;;;;;;5012320;28;20033;-46
2021/11/11 10:49:37;;;;;;;14.75;6.18;;;10.50;93.70;;;;;;5014658;28;20267;-46
2021/11/11 10:52:27;;;;;;;16.33;9.88;;;10.50;93.80;;;;;;5026164;28;20026;-46
2021/11/11 10:55:06;;;;;;;7.18;4.10;;;10.50;93.70;;;;;;5033031;28;20033;-47
2021/11/11 10:57:38;;;;;;;12.00;6.35;;;10.60;93.80;;;;;;5032634;28;20029;-47
2021/11/11 11:00:10;;;;;;;11.40;5.57;;;10.50;93.80;;;;;;5026579;28;20029;-46
2021/11/11 11:02:54;;;;;;;12.15;5.45;;;10.60;93.90;;;;;;5019691;28;20022;-47
2021/11/11 11:05:43;;;;;;;12.02;6.22;;;10.60;94.00;;;;;;5018933;28;20445;-47
2021/11/11 11:08:13;;;;;;;9.33;5.27;;;10.60;94.00;;;;;;5022933;28;20017;-46
2021/11/11 11:10:43;;;;;;;9.13;5.28;;;10.60;94.10;;;;;;5024647;28;20034;-46
2021/11/11 11:13:18;;;;;;;16.08;7.53;;;10.60;94.20;;;;;;5012154;28;20394;-47
2021/11/11 11:15:57;;;;;;;16.08;7.70;;;10.60;94.30;;;;;;5011698;28;20030;-46
2021/11/11 11:18:30;;;;;;;18.40;8.20;;;10.60;94.30;;;;;;5012622;28;20036;-46
2021/11/11 11:20:59;;;;;;;15.77;7.43;;;10.60;94.40;;;;;;5012093;28;20037;-46
2021/11/11 11:23:29;;;;;;;14.63;6.50;;;10.60;94.50;;;;;;5012507;28;20532;-47
2021/11/11 11:26:04;;;;;;;14.57;8.15;;;10.60;94.60;;;;;;5011862;28;20040;-47
2021/11/11 11:28:43;;;;;;;21.67;8.23;;;10.60;94.60;;;;;;4992875;28;20057;-46
2021/11/11 11:31:10;;;;;;;13.33;7.60;;;10.60;94.60;;;;;;4992940;28;20033;-46
2021/11/11 11:33:45;;;;;;;19.00;7.93;;;10.70;94.50;;;;;;5011172;28;20396;-46
2021/11/11 11:36:15;;;;;;;16.55;6.78;;;10.70;94.50;;;;;;5013297;28;20095;-47
2021/11/11 11:38:48;;;;;;;;;;;10.70;94.50;;;;;;5021954;28;20100;-46
2021/11/11 11:41:34;;;;;;;16.95;10.25;;;10.70;94.60;;;;;;5016664;28;19906;-47
2021/11/11 11:44:21;;;;;;;11.60;5.88;;;10.60;94.60;;;;;;5019319;28;20063;-47
2021/11/11 11:46:55;;;;;;;15.75;7.60;;;10.70;94.80;;;;;;5019599;28;20449;-46
2021/11/11 11:49:23;;;;;;;12.43;6.85;;;10.70;94.80;;;;;;5016516;28;20056;-47
2021/11/11 11:51:49;;;;;;;14.25;6.97;;;10.70;94.90;;;;;;5013052;28;20061;-47
2021/11/11 11:54:29;;;;;;;11.40;4.90;;;10.70;95.00;;;;;;5016902;28;20344;-46
2021/11/11 11:57:00;;;;;;;19.52;9.52;;;10.70;95.00;;;;;;5010706;28;20461;-47
2021/11/11 11:59:33;;;;;;;23.40;8.38;;;10.70;95.20;;;;;;5014190;28;20514;-47
2021/11/11 12:15:18;;;;;;;25.70;10.73;;;10.80;95.30;;;;;;5002932;28;20056;-46
2021/11/11 12:40:35;;;;;;;16.15;7.80;;;10.70;95.20;;;;;;5004468;28;20180;-47
2021/11/11 12:43:18;;;;;;;23.60;11.02;;;10.70;95.00;;;;;;5010978;28;20030;-47
2021/11/11 12:45:45;;;;;;;29.25;13.15;;;10.80;95.20;;;;;;5009373;28;20452;-47
2021/11/11 12:48:10;;;;;;;27.58;12.82;;;10.70;95.10;;;;;;5009180;28;20121;-47
2021/11/11 12:50:48;;;;;;;28.70;11.90;;;10.80;95.20;;;;;;5009281;28;20042;-47
2021/11/11 12:53:14;;;;;;;34.80;13.45;;;10.70;95.30;;;;;;5009400;28;20117;-47
2021/11/11 12:56:06;;;;;;;16.23;8.25;;;10.70;95.20;;;;;;5010063;28;20117;-46
2021/11/11 12:58:37;;;;;;;18.92;8.95;;;10.80;94.90;;;;;;5009765;28;20326;-47
2021/11/11 13:01:16;;;;;;;27.33;12.25;;;10.80;94.80;;;;;;5023828;28;20029;-46
2021/11/11 13:03:58;;;;;;;27.42;10.38;;;10.70;95.00;;;;;;5015558;28;20073;-46
2021/11/11 13:06:42;;;;;;;24.85;11.30;;;10.70;95.30;;;;;;5008937;28;20088;-47
2021/11/11 13:09:11;;;;;;;19.35;7.93;;;10.70;95.20;;;;;;5010024;28;20176;-47
2021/11/11 13:11:42;;;;;;;14.10;7.45;;;10.70;94.80;;;;;;5011962;28;20087;-47
2021/11/11 13:14:19;;;;;;;18.60;9.77;;;10.70;95.00;;;;;;5013774;28;20029;-46
2021/11/11 13:17:13;;;;;;;22.45;10.85;;;10.70;95.00;;;;;;5013101;28;20068;-47
2021/11/11 13:20:12;;;;;;;14.57;6.45;;;10.80;94.90;;;;;;5013605;28;20030;-47
2021/11/11 13:23:20;;;;;;;25.58;10.15;;;10.80;94.90;;;;;;4990363;28;20516;-47
2021/11/11 13:25:50;;;;;;;15.35;8.18;;;10.80;94.90;;;;;;4992437;28;20042;-48
2021/11/11 13:54:31;;;;;;;21.38;8.63;;;10.80;95.20;;;;;;5013770;28;20347;-47
2021/11/11 14:05:06;;;;;;;35.67;12.20;;;10.80;95.50;;;;;;5013242;28;20034;-46
2021/11/11 16:19:49;;;;;;;27.60;11.32;;;10.80;94.60;;;;;;5013221;28;20368;-47
2021/11/11 16:22:57;;;;;;;28.45;11.18;;;10.80;94.60;;;;;;5003883;28;20380;-47
2021/11/11 16:28:02;;;;;;;23.83;10.43;;;10.70;94.50;;;;;;5009688;28;20072;-47
2021/11/11 16:30:28;;;;;;;22.48;11.05;;;10.80;94.60;;;;;;5010586;28;20030;-47
2021/11/11 16:32:54;;;;;;;37.28;14.30;;;10.80;94.60;;;;;;5010599;28;20057;-47
2021/11/11 16:35:22;;;;;;;44.05;15.43;;;10.70;94.60;;;;;;5009238;28;20472;-47
2021/11/11 16:37:49;;;;;;;54.97;18.23;;;10.70;94.60;;;;;;5009727;28;20084;-47
2021/11/11 16:40:19;;;;;;;32.97;13.05;;;10.70;94.60;;;;;;5013151;28;20397;-47